createdAt,value
2022-10-05T00:00:52.651Z,12.08
2022-10-05T00:03:20.974Z,12.09
2022-10-05T00:05:49.023Z,12.11
2022-10-05T00:08:20.526Z,12.15
2022-10-05T00:10:48.994Z,12.01
2022-10-05T00:13:21.364Z,11.96
2022-10-05T00:15:49.627Z,12.00
2022-10-05T00:18:18.898Z,11.93
2022-10-05T00:20:47.815Z,11.95
2022-10-05T00:23:19.290Z,11.91
2022-10-05T00:25:47.381Z,11.98
2022-10-05T00:28:20.034Z,11.98
2022-10-05T00:30:48.153Z,11.95
2022-10-05T00:33:15.983Z,11.99
2022-10-05T00:35:44.029Z,12.07
2022-10-05T00:38:11.870Z,12.08
2022-10-05T00:40:49.957Z,12.07
2022-10-05T00:43:33.352Z,12.07
2022-10-05T00:46:07.701Z,12.10
2022-10-05T00:48:41.131Z,12.12
2022-10-05T00:51:17.838Z,12.10
2022-10-05T00:53:49.191Z,12.04
2022-10-05T00:56:29.475Z,12.08
2022-10-05T00:59:05.621Z,12.13
2022-10-05T01:01:38.344Z,12.09
2022-10-05T01:04:14.444Z,12.07
2022-10-05T01:06:48.267Z,12.02
2022-10-05T01:09:23.698Z,12.01
2022-10-05T01:11:56.130Z,12.03
2022-10-05T01:14:30.260Z,12.13
2022-10-05T01:17:01.194Z,12.09
2022-10-05T01:19:44.413Z,12.08
2022-10-05T01:22:16.583Z,12.13
2022-10-05T01:25:04.259Z,12.19
2022-10-05T01:27:40.506Z,12.18
2022-10-05T01:30:12.936Z,12.19
2022-10-05T01:32:46.106Z,12.18
2022-10-05T01:35:22.402Z,12.22
2022-10-05T01:37:56.982Z,12.22
2022-10-05T01:40:31.285Z,12.19
2022-10-05T01:43:07.031Z,12.25
2022-10-05T01:45:44.182Z,12.25
2022-10-05T01:48:17.560Z,12.22
2022-10-05T01:50:53.421Z,12.15
2022-10-05T01:53:31.633Z,12.17
2022-10-05T01:56:07.465Z,12.22
2022-10-05T01:58:42.693Z,12.20
2022-10-05T02:01:17.487Z,12.16
2022-10-05T02:03:50.632Z,12.20
2022-10-05T02:06:21.785Z,12.16
2022-10-05T02:08:55.067Z,12.17
2022-10-05T02:11:23.068Z,12.20
2022-10-05T02:13:55.607Z,12.23
2022-10-05T02:16:27.988Z,12.25
2022-10-05T02:18:59.530Z,12.26
2022-10-05T02:21:27.975Z,12.19
2022-10-05T02:23:58.832Z,12.15
2022-10-05T02:26:27.339Z,12.11
2022-10-05T02:29:00.011Z,12.16
2022-10-05T02:31:31.953Z,12.07
2022-10-05T02:34:25.332Z,12.13
2022-10-05T02:37:13.169Z,12.13
2022-10-05T02:39:48.653Z,12.13
2022-10-05T02:42:24.049Z,12.19
2022-10-05T02:44:58.343Z,12.15
2022-10-05T02:47:33.442Z,12.14
2022-10-05T02:50:07.061Z,12.17
2022-10-05T02:52:41.162Z,12.25
2022-10-05T02:55:14.163Z,12.24
2022-10-05T02:57:48.711Z,12.30
2022-10-05T03:00:19.911Z,12.27
2022-10-05T03:02:55.217Z,12.30
2022-10-05T03:05:25.969Z,12.20
2022-10-05T03:07:59.054Z,12.22
2022-10-05T03:10:31.279Z,12.24
2022-10-05T03:13:05.174Z,12.30
2022-10-05T03:16:05.751Z,12.29
2022-10-05T03:18:46.436Z,12.33
2022-10-05T03:21:26.343Z,12.25
2022-10-05T03:24:07.972Z,12.23
2022-10-05T03:26:42.039Z,12.20
2022-10-05T03:29:13.739Z,12.20
2022-10-05T03:31:45.033Z,12.22
2022-10-05T03:34:19.344Z,12.28
2022-10-05T03:36:51.586Z,12.32
2022-10-05T03:39:24.032Z,12.33
2022-10-05T03:41:56.406Z,12.25
2022-10-05T03:44:32.034Z,12.30
2022-10-05T03:47:07.747Z,12.24
2022-10-05T03:49:53.886Z,12.26
2022-10-05T03:52:24.725Z,12.22
2022-10-05T03:54:57.326Z,12.32
2022-10-05T03:57:27.140Z,12.27
2022-10-05T04:00:00.784Z,12.36
2022-10-05T04:02:33.495Z,12.38
2022-10-05T04:05:06.034Z,12.43
2022-10-05T04:07:42.721Z,12.39
2022-10-05T04:10:17.536Z,12.39
2022-10-05T04:12:50.454Z,12.39
2022-10-05T04:15:25.458Z,12.35
2022-10-05T04:17:58.713Z,12.26
2022-10-05T04:20:32.218Z,12.31
2022-10-05T04:23:05.625Z,12.33
2022-10-05T04:25:38.178Z,12.26
2022-10-05T04:28:11.501Z,12.24
2022-10-05T04:30:41.754Z,12.21
2022-10-05T04:33:11.396Z,12.22
2022-10-05T04:35:58.477Z,12.28
2022-10-05T04:38:41.662Z,12.37
2022-10-05T04:41:21.234Z,12.30
2022-10-05T04:44:00.385Z,12.28
2022-10-05T04:46:37.914Z,12.31
2022-10-05T04:49:15.348Z,12.35
2022-10-05T04:51:53.239Z,12.31
2022-10-05T04:54:27.653Z,12.44
2022-10-05T04:56:57.994Z,12.50
2022-10-05T05:00:00.878Z,12.51
2022-10-05T05:02:39.195Z,12.45
2022-10-05T05:05:26.737Z,12.49
2022-10-05T05:08:07.334Z,12.56
2022-10-05T05:10:45.202Z,12.45
2022-10-05T05:13:28.970Z,12.44
2022-10-05T05:16:03.030Z,12.46
2022-10-05T05:18:43.313Z,12.51
2022-10-05T05:21:19.106Z,12.51
2022-10-05T05:23:52.271Z,12.54
2022-10-05T05:26:28.379Z,12.49
2022-10-05T05:28:59.979Z,12.51
2022-10-05T05:31:34.318Z,12.51
2022-10-05T05:34:09.431Z,12.51
2022-10-05T05:36:58.950Z,12.58
2022-10-05T05:39:29.849Z,12.51
2022-10-05T05:42:00.801Z,12.61
2022-10-05T05:44:38.601Z,12.67
2022-10-05T05:47:14.836Z,12.67
2022-10-05T05:49:55.789Z,12.69
2022-10-05T05:52:28.840Z,12.68
2022-10-05T05:55:02.206Z,12.63
2022-10-05T05:57:33.502Z,12.71
2022-10-05T06:00:07.093Z,12.71
2022-10-05T06:03:10.269Z,12.76
2022-10-05T06:05:42.481Z,12.71
2022-10-05T06:08:16.750Z,12.76
2022-10-05T06:10:53.540Z,12.72
2022-10-05T06:13:24.595Z,12.67
2022-10-05T06:15:56.047Z,12.89
2022-10-05T06:18:24.724Z,12.77
2022-10-05T06:20:59.050Z,12.72
2022-10-05T06:23:32.347Z,12.79
2022-10-05T06:26:12.833Z,12.78
2022-10-05T06:28:43.212Z,12.77
2022-10-05T06:31:21.210Z,12.76
2022-10-05T06:33:55.643Z,12.77
2022-10-05T06:36:38.704Z,12.69
2022-10-05T06:39:38.531Z,12.73
2022-10-05T06:42:17.820Z,12.63
2022-10-05T06:45:08.872Z,12.61
2022-10-05T06:47:59.470Z,12.64
2022-10-05T06:50:57.016Z,12.71
2022-10-05T06:53:45.094Z,12.68
2022-10-05T06:56:16.970Z,12.62
2022-10-05T06:58:51.715Z,12.69
2022-10-05T07:01:30.294Z,12.78
2022-10-05T07:04:16.921Z,12.77
2022-10-05T07:06:50.256Z,12.92
2022-10-05T07:09:27.942Z,12.86
2022-10-05T07:12:12.745Z,12.83
2022-10-05T07:14:58.540Z,12.87
2022-10-05T07:17:45.451Z,12.99
2022-10-05T07:20:18.458Z,13.06
2022-10-05T07:23:03.865Z,13.10
2022-10-05T07:25:36.689Z,13.16
2022-10-05T07:28:07.240Z,13.10
2022-10-05T07:30:43.681Z,13.16
2022-10-05T07:33:15.228Z,13.20
2022-10-05T07:36:07.190Z,13.41
2022-10-05T07:38:39.272Z,13.50
2022-10-05T07:41:09.322Z,13.42
2022-10-05T07:44:01.442Z,13.55
2022-10-05T07:46:45.255Z,13.56
2022-10-05T07:49:18.901Z,13.63
2022-10-05T07:51:49.592Z,13.72
2022-10-05T07:54:21.771Z,13.68
2022-10-05T07:56:52.607Z,13.70
2022-10-05T07:59:27.097Z,13.66
2022-10-05T08:02:06.971Z,13.76
2022-10-05T08:04:41.772Z,13.95
2022-10-05T08:07:13.977Z,14.13
2022-10-05T08:09:45.363Z,14.05
2022-10-05T08:12:26.818Z,14.11
2022-10-05T08:14:57.432Z,14.33
2022-10-05T08:17:49.417Z,14.36
2022-10-05T08:20:30.832Z,14.36
2022-10-05T08:23:02.257Z,14.57
2022-10-05T08:25:39.804Z,14.56
2022-10-05T08:28:14.576Z,14.63
2022-10-05T08:30:54.536Z,14.64
2022-10-05T08:33:24.958Z,14.58
2022-10-05T08:35:56.083Z,14.44
2022-10-05T08:38:30.286Z,14.57
2022-10-05T08:41:12.304Z,14.78
2022-10-05T08:44:27.218Z,14.61
2022-10-05T08:47:14.460Z,14.69
2022-10-05T08:50:09.347Z,14.87
2022-10-05T08:52:51.620Z,14.87
2022-10-05T08:55:35.902Z,15.06
2022-10-05T08:58:27.562Z,14.90
2022-10-05T09:01:00.777Z,15.11
2022-10-05T09:03:54.583Z,15.27
2022-10-05T09:06:46.288Z,15.41
2022-10-05T09:09:34.775Z,15.66
2022-10-05T09:12:18.106Z,15.53
2022-10-05T09:15:13.668Z,15.63
2022-10-05T09:18:04.490Z,15.78
2022-10-05T09:20:38.780Z,15.63
2022-10-05T09:23:14.065Z,15.71
2022-10-05T09:25:44.369Z,15.80
2022-10-05T09:28:25.403Z,15.75
2022-10-05T09:30:59.120Z,15.93
2022-10-05T09:33:40.846Z,16.14
2022-10-05T09:36:42.198Z,16.14
2022-10-05T09:39:25.379Z,16.31
2022-10-05T09:41:57.429Z,16.27
2022-10-05T09:44:50.872Z,16.49
2022-10-05T09:47:41.343Z,16.40
2022-10-05T09:50:41.835Z,16.75
2022-10-05T09:53:22.781Z,16.50
2022-10-05T09:56:09.347Z,16.55
2022-10-05T09:59:05.677Z,16.84
2022-10-05T10:01:59.588Z,16.72
2022-10-05T10:04:52.967Z,16.84
2022-10-05T10:07:30.653Z,16.86
2022-10-05T10:10:49.181Z,17.08
2022-10-05T10:13:33.683Z,17.45
2022-10-05T10:16:18.291Z,17.50
2022-10-05T10:18:57.124Z,17.70
2022-10-05T10:21:54.899Z,17.49
2022-10-05T10:24:35.430Z,17.42
2022-10-05T10:27:12.234Z,17.62
2022-10-05T10:30:04.612Z,17.87
2022-10-05T10:33:11.845Z,18.01
2022-10-05T10:35:41.145Z,18.03
2022-10-05T10:38:28.491Z,17.77
2022-10-05T10:41:22.503Z,17.83
2022-10-05T10:44:07.298Z,18.00
2022-10-05T10:46:40.793Z,17.92
2022-10-05T10:49:23.261Z,17.56
2022-10-05T10:52:06.287Z,17.80
2022-10-05T10:54:48.799Z,17.82
2022-10-05T10:57:18.530Z,17.83
2022-10-05T11:00:22.370Z,17.82
2022-10-05T11:03:01.402Z,17.82
2022-10-05T11:05:38.751Z,17.75
2022-10-05T11:08:27.565Z,17.91
2022-10-05T11:11:20.579Z,17.97
2022-10-05T11:14:12.171Z,17.81
2022-10-05T11:17:15.521Z,18.04
2022-10-05T11:20:06.428Z,18.91
2022-10-05T11:22:47.625Z,19.12
2022-10-05T11:25:44.233Z,19.14
2022-10-05T11:42:20.827Z,18.24
2022-10-05T11:45:07.250Z,18.24
2022-10-05T11:47:50.452Z,18.19
2022-10-05T11:50:21.820Z,17.85
2022-10-05T11:52:54.806Z,18.00
2022-10-05T11:55:27.716Z,17.79
2022-10-05T11:57:57.543Z,17.62
2022-10-05T12:00:26.587Z,17.56
2022-10-05T12:03:24.223Z,17.66
2022-10-05T12:06:04.705Z,17.87
2022-10-05T12:08:41.218Z,18.12
2022-10-05T12:11:23.799Z,17.85
2022-10-05T12:13:57.196Z,17.66
2022-10-05T12:16:28.673Z,18.04
2022-10-05T12:19:01.350Z,18.29
2022-10-05T12:21:33.955Z,17.98
2022-10-05T12:24:05.779Z,17.92
2022-10-05T12:26:37.777Z,17.85
2022-10-05T12:29:13.413Z,18.01
2022-10-05T12:31:49.472Z,17.99
2022-10-05T12:34:26.261Z,17.72
2022-10-05T12:37:05.381Z,17.93
2022-10-05T12:39:40.779Z,17.65
2022-10-05T12:42:19.013Z,17.60
2022-10-05T12:45:06.438Z,17.85
2022-10-05T12:47:42.915Z,17.64
2022-10-05T12:50:18.920Z,17.65
2022-10-05T12:53:10.609Z,17.72
2022-10-05T12:55:42.583Z,17.71
2022-10-05T12:58:19.472Z,17.81
2022-10-05T13:00:52.778Z,17.73
2022-10-05T13:03:26.260Z,17.77
2022-10-05T13:06:04.016Z,17.82
2022-10-05T13:08:37.957Z,17.76
2022-10-05T13:11:14.749Z,17.84
2022-10-05T13:13:50.663Z,17.92
2022-10-05T13:16:28.259Z,17.62
2022-10-05T13:19:07.771Z,17.63
2022-10-05T13:21:53.630Z,17.91
2022-10-05T13:24:26.584Z,18.06
2022-10-05T13:26:55.861Z,18.05
2022-10-05T13:29:28.761Z,18.01
2022-10-05T13:32:00.704Z,18.12
2022-10-05T13:34:33.075Z,18.13
2022-10-05T13:37:07.986Z,18.01
2022-10-05T13:39:47.399Z,18.19
2022-10-05T13:42:18.802Z,18.05
2022-10-05T13:44:50.812Z,18.34
2022-10-05T13:47:28.211Z,18.64
2022-10-05T13:49:58.825Z,18.45
2022-10-05T13:52:42.174Z,18.23
2022-10-05T13:55:18.391Z,17.84
2022-10-05T13:57:54.061Z,17.83
2022-10-05T14:00:25.662Z,18.11
2022-10-05T14:02:56.463Z,18.66
2022-10-05T14:05:25.481Z,18.24
2022-10-05T14:07:55.445Z,18.21
2022-10-05T14:10:40.446Z,17.92
2022-10-05T14:13:20.963Z,18.62
2022-10-05T14:16:05.382Z,18.61
2022-10-05T14:18:38.196Z,18.06
2022-10-05T14:21:18.145Z,17.98
2022-10-05T14:23:46.315Z,17.89
2022-10-05T14:26:32.525Z,18.05
2022-10-05T14:29:02.731Z,17.84
2022-10-05T14:31:36.615Z,17.80
2022-10-05T14:34:31.979Z,17.80
2022-10-05T14:37:02.564Z,17.68
2022-10-05T14:39:35.019Z,17.76
2022-10-05T14:42:17.723Z,17.83
2022-10-05T14:44:46.239Z,17.86
2022-10-05T14:47:22.531Z,17.92
2022-10-05T14:50:10.730Z,17.98
2022-10-05T14:52:41.095Z,17.97
2022-10-05T14:55:22.993Z,17.75
2022-10-05T14:57:59.783Z,17.65
2022-10-05T15:00:28.785Z,17.63
2022-10-05T15:03:23.502Z,17.74
2022-10-05T15:05:54.781Z,17.62
2022-10-05T15:08:36.028Z,17.62
2022-10-05T15:11:07.623Z,17.52
2022-10-05T15:13:39.058Z,17.48
2022-10-05T15:16:15.859Z,17.48
2022-10-05T15:18:49.970Z,17.31
2022-10-05T15:21:40.719Z,17.41
2022-10-05T15:24:13.344Z,17.36
2022-10-05T15:26:50.466Z,17.23
2022-10-05T15:29:41.881Z,17.10
2022-10-05T15:32:20.142Z,17.12
2022-10-05T15:34:58.040Z,17.16
2022-10-05T15:37:31.816Z,17.12
2022-10-05T15:40:01.178Z,17.12
2022-10-05T15:42:35.063Z,17.08
2022-10-05T15:45:09.012Z,16.95
2022-10-05T15:47:47.207Z,16.93
2022-10-05T15:50:21.624Z,16.97
2022-10-05T15:52:55.336Z,16.96
2022-10-05T15:55:36.778Z,17.01
2022-10-05T15:58:31.126Z,16.97
2022-10-05T16:01:05.589Z,16.84
2022-10-05T16:03:45.012Z,16.87
2022-10-05T16:06:35.745Z,16.94
2022-10-05T16:09:24.496Z,16.92
2022-10-05T16:12:03.684Z,16.89
2022-10-05T16:14:41.319Z,16.84
2022-10-05T16:17:16.499Z,16.71
2022-10-05T16:19:51.993Z,16.70
2022-10-05T16:22:24.402Z,16.73
2022-10-05T16:25:06.214Z,16.80
2022-10-05T16:27:42.142Z,16.77
2022-10-05T16:30:11.861Z,16.71
2022-10-05T16:32:43.921Z,16.68
2022-10-05T16:35:20.891Z,16.53
2022-10-05T16:37:57.350Z,16.51
2022-10-05T16:40:36.834Z,16.53
2022-10-05T16:43:14.221Z,16.56
2022-10-05T16:45:51.625Z,16.53
2022-10-05T16:48:25.999Z,16.41
2022-10-05T16:51:04.333Z,16.43
2022-10-05T16:53:36.579Z,16.38
2022-10-05T16:56:08.171Z,16.31
2022-10-05T16:58:47.956Z,16.33
2022-10-05T17:01:28.554Z,16.34
2022-10-05T17:04:07.595Z,16.34
2022-10-05T17:06:50.183Z,16.37
2022-10-05T17:09:32.290Z,16.21
2022-10-05T17:12:09.051Z,16.27
2022-10-05T17:14:41.731Z,16.22
2022-10-05T17:17:34.138Z,16.26
2022-10-05T17:20:15.958Z,16.18
2022-10-05T17:22:51.042Z,16.16
2022-10-05T17:25:24.330Z,16.24
2022-10-05T17:27:55.454Z,16.28
2022-10-05T17:30:37.276Z,16.14
2022-10-05T17:33:19.666Z,16.10
2022-10-05T17:35:54.219Z,16.16
2022-10-05T17:38:23.337Z,16.20
2022-10-05T17:41:17.208Z,16.14
2022-10-05T17:44:20.291Z,16.13
2022-10-05T17:46:49.656Z,16.01
2022-10-05T17:49:36.395Z,16.11
2022-10-05T17:52:23.883Z,16.08
2022-10-05T17:55:30.521Z,16.11
2022-10-05T17:58:00.423Z,16.04
2022-10-05T18:00:42.001Z,16.08
2022-10-05T18:03:39.245Z,16.09
2022-10-05T18:06:41.607Z,16.06
2022-10-05T18:09:20.823Z,15.98
2022-10-05T18:12:08.563Z,16.03
2022-10-05T18:14:58.505Z,16.06
2022-10-05T18:17:45.058Z,16.06
2022-10-05T18:20:31.443Z,16.07
2022-10-05T18:23:29.400Z,16.01
2022-10-05T18:26:02.234Z,15.96
2022-10-05T18:28:40.789Z,15.93
2022-10-05T18:31:17.506Z,15.84
2022-10-05T18:34:20.993Z,15.85
2022-10-05T18:37:02.031Z,15.75
2022-10-05T18:39:43.896Z,15.83
2022-10-05T18:42:17.145Z,15.77
2022-10-05T18:44:47.599Z,15.78
2022-10-05T18:47:19.506Z,15.88
2022-10-05T18:50:22.424Z,15.87
2022-10-05T18:53:06.230Z,15.76
2022-10-05T18:55:36.879Z,15.75
2022-10-05T18:58:12.278Z,15.75
2022-10-05T19:00:53.358Z,15.69
2022-10-05T19:03:27.688Z,15.76
2022-10-05T19:06:03.363Z,15.77
2022-10-05T19:08:39.476Z,15.68
2022-10-05T19:11:14.065Z,15.69
2022-10-05T19:13:47.731Z,15.70
2022-10-05T19:16:25.332Z,15.64
2022-10-05T19:19:07.102Z,15.61
2022-10-05T19:21:44.329Z,15.61
2022-10-05T19:24:27.714Z,15.53
2022-10-05T19:27:02.604Z,15.56
2022-10-05T19:29:42.391Z,15.51
2022-10-05T19:32:18.596Z,15.48
2022-10-05T19:35:07.104Z,15.31
2022-10-05T19:37:42.647Z,15.28
2022-10-05T19:40:15.902Z,15.22
2022-10-05T19:43:06.403Z,15.20
2022-10-05T19:45:38.580Z,15.13
2022-10-05T19:48:15.105Z,15.20
2022-10-05T19:50:54.609Z,15.19
2022-10-05T19:53:30.848Z,15.17
2022-10-05T19:56:13.455Z,15.16
2022-10-05T19:58:41.784Z,15.13
2022-10-05T20:01:11.231Z,15.11
2022-10-05T20:03:40.973Z,15.07
2022-10-05T20:06:09.877Z,15.03
2022-10-05T20:08:41.810Z,15.00
2022-10-05T20:11:12.155Z,14.99
2022-10-05T20:13:41.778Z,14.90
2022-10-05T20:16:36.526Z,14.92
2022-10-05T20:19:22.952Z,14.86
2022-10-05T20:21:52.576Z,14.82
2022-10-05T20:24:25.420Z,14.92
2022-10-05T20:27:16.419Z,14.95
2022-10-05T20:29:45.693Z,14.81
2022-10-05T20:32:15.133Z,14.76
2022-10-05T20:34:44.622Z,14.87
2022-10-05T20:37:14.130Z,14.80
2022-10-05T20:39:43.871Z,14.81
2022-10-05T20:42:12.190Z,14.75
2022-10-05T20:44:40.134Z,14.70
2022-10-05T20:47:10.335Z,14.70
2022-10-05T20:49:40.947Z,14.70
2022-10-05T20:52:10.787Z,14.65
2022-10-05T20:54:39.679Z,14.61
2022-10-05T20:57:09.344Z,14.69
2022-10-05T20:59:37.713Z,14.58
2022-10-05T21:02:06.302Z,14.62
2022-10-05T21:04:40.966Z,14.59
2022-10-05T21:07:10.087Z,14.48
2022-10-05T21:09:39.149Z,14.51
2022-10-05T21:12:07.289Z,14.54
2022-10-05T21:14:37.664Z,14.52
2022-10-05T21:17:06.243Z,14.54
2022-10-05T21:19:38.252Z,14.53
2022-10-05T21:22:08.251Z,14.60
2022-10-05T21:24:36.854Z,14.61
2022-10-05T21:27:05.200Z,14.55
2022-10-05T21:29:34.151Z,14.52
2022-10-05T21:32:03.546Z,14.52
2022-10-05T21:34:31.661Z,14.50
2022-10-05T21:36:59.530Z,14.59
2022-10-05T21:39:27.402Z,14.73
2022-10-05T21:41:55.391Z,14.86
2022-10-05T21:44:23.344Z,15.03
2022-10-05T21:46:51.359Z,15.09
2022-10-05T21:49:20.912Z,15.14
2022-10-05T21:51:49.048Z,15.23
2022-10-05T21:54:19.417Z,15.27
2022-10-05T21:56:49.877Z,15.29
2022-10-05T21:59:19.777Z,15.26
2022-10-05T22:01:47.657Z,15.22
2022-10-05T22:04:15.981Z,15.27
2022-10-05T22:06:45.252Z,15.35
2022-10-05T22:09:13.223Z,15.42
2022-10-05T22:11:41.083Z,15.52
2022-10-05T22:14:09.206Z,15.66
2022-10-05T22:16:38.520Z,15.63
2022-10-05T22:19:08.705Z,15.65
2022-10-05T22:21:41.416Z,15.67
2022-10-05T22:24:11.368Z,15.82
2022-10-05T22:26:39.484Z,15.85
2022-10-05T22:29:07.341Z,15.77
2022-10-05T22:31:35.294Z,15.67
2022-10-05T22:34:03.215Z,15.62
2022-10-05T22:36:31.106Z,15.66
2022-10-05T22:38:58.938Z,15.71
2022-10-05T22:41:28.106Z,15.63
2022-10-05T22:43:55.926Z,15.60
2022-10-05T22:46:23.753Z,15.63
2022-10-05T22:48:51.645Z,15.55
2022-10-05T22:51:19.403Z,15.68
2022-10-05T22:53:47.253Z,15.59
2022-10-05T22:56:15.525Z,15.70
2022-10-05T22:58:45.896Z,15.61
2022-10-05T23:01:15.543Z,15.65
2022-10-05T23:03:43.682Z,15.71
2022-10-05T23:06:13.233Z,15.67
2022-10-05T23:08:42.008Z,15.66
2022-10-05T23:11:11.295Z,15.74
2022-10-05T23:13:39.140Z,15.81
2022-10-05T23:16:10.908Z,15.77
2022-10-05T23:18:39.184Z,15.87
2022-10-05T23:21:08.525Z,15.91
2022-10-05T23:23:36.806Z,15.92
2022-10-05T23:26:05.850Z,15.96
2022-10-05T23:28:33.958Z,15.90
2022-10-05T23:31:03.151Z,15.96
2022-10-05T23:33:36.360Z,15.96
2022-10-05T23:36:06.530Z,16.03
2022-10-05T23:38:35.443Z,16.02
2022-10-05T23:41:03.523Z,16.05
2022-10-05T23:43:33.176Z,16.08
2022-10-05T23:46:01.746Z,16.08
2022-10-05T23:48:30.062Z,16.15
2022-10-05T23:50:59.576Z,16.14
2022-10-05T23:53:27.673Z,16.12
2022-10-05T23:55:55.871Z,16.22
2022-10-05T23:58:24.533Z,16.20
